MMMZ/MZT METAR and TAF weather

Enter ICAO airport designator
Station Type Date Time Source
MMMZ METAR 2019/05/26 23:44 UTC NOAA

MMMZ 262344Z 28006KT 15SM FEW090 OVC230 27/22 A2983 RMK SLP100 57020 914 8/037


Station Type Date Time Source
MMMZ Decoded METAR 2019/05/26 23:44 UTC NOAA

Mazatlan / G. Buelna, Mexico (MMMZ) 23-10N 106-16W
May 26, 2019 - 07:44 PM EDT / 2019.05.26 2344 UTC
Wind: from the W (280 degrees) at 7 MPH (6 KT):0
Visibility: 15 mile(s):0
Sky conditions: overcast
Temperature: 80 F (27 C)
Dew Point: 71 F (22 C)
Relative Humidity: 74%
Pressure (altimeter): 29.83 in. Hg (1010 hPa)
Pressure tendency: 0.06 inches (2.0 hPa) lower than three hours ago
ob: MMMZ 262344Z 28006KT 15SM FEW090 OVC230 27/22 A2983 RMK SLP100 57020 914 8/037
cycle: 23

Station Type Date Time Source
MMMZ TAF 2019/05/26 18:58 UTC NOAA

TAF MMMZ 261656Z 2618/2724 27010KT P6SM BKN250 TX31/2619Z TN20/2712Z
FM270400 30006KT P6SM SCT250
FM271700 23008KT P6SM SKC
BECMG 2719/2720 28012KT

Example: see airport list